Time;durP1;ratioP1;P1;durP2;ratioP2;P2;SDS_P1;SDS_P2;PMS_P1;PMS_P2;Temp;Humidity;BMP_temperature;BMP_pressure;BME280_temperature;BME280_humidity;BME280_pressure;Samples;Min_cycle;Max_cycle;Signal;HPM_P1;HPM_P2
2021/04/15 00:01:13;;;;;;;7.97;5.87;;;;;;;3.90;63.79;96489.58;1681157;84;21223;-54
2021/04/15 00:03:42;;;;;;;10.68;6.00;;;;;;;3.87;63.68;96490.53;1685032;84;22418;-53
2021/04/15 00:06:16;;;;;;;10.72;6.33;;;;;;;3.84;63.75;96485.53;1694960;83;21109;-53
2021/04/15 00:08:45;;;;;;;10.98;6.67;;;;;;;3.80;63.93;96484.45;1703189;83;21152;-54
2021/04/15 00:11:17;;;;;;;14.47;7.03;;;;;;;3.80;64.03;96481.45;1621878;87;21222;-55
2021/04/15 00:13:49;;;;;;;10.15;5.62;;;;;;;3.84;64.04;96477.01;1591475;89;21268;-53
2021/04/15 00:16:18;;;;;;;6.12;4.92;;;;;;;3.84;63.92;96484.71;1628214;87;21167;-52
2021/04/15 00:18:46;;;;;;;7.70;5.17;;;;;;;3.82;63.87;96479.64;1622707;87;21276;-53
2021/04/15 00:21:14;;;;;;;6.10;4.97;;;;;;;3.77;64.22;96482.88;1622216;87;21036;-53
2021/04/15 00:23:46;;;;;;;14.70;7.55;;;;;;;3.79;64.48;96487.94;1618906;87;21643;-52
2021/04/15 00:26:17;;;;;;;7.00;5.25;;;;;;;3.80;64.30;96486.59;1539627;91;21248;-54
2021/04/15 00:28:50;;;;;;;10.30;5.92;;;;;;;3.81;64.22;96478.43;1549075;89;21714;-53
2021/04/15 00:31:18;;;;;;;8.48;6.03;;;;;;;3.81;64.23;96477.97;1580293;88;21659;-53
2021/04/15 00:33:48;;;;;;;10.38;6.75;;;;;;;3.83;64.31;96482.61;1596102;88;21795;-53
2021/04/15 00:36:19;;;;;;;16.07;8.45;;;;;;;3.83;64.23;96478.75;1627830;86;21601;-53
2021/04/15 00:38:49;;;;;;;10.00;6.53;;;;;;;3.82;64.27;96479.64;1609266;87;21208;-53
2021/04/15 00:41:19;;;;;;;6.45;5.40;;;;;;;3.81;64.34;96477.14;1627435;85;22719;-53
2021/04/15 00:43:47;;;;;;;6.65;4.83;;;;;;;3.79;64.45;96477.67;1629767;86;21224;-52
2021/04/15 00:46:49;;;;;;;6.05;5.08;;;;;;;3.79;64.52;96475.93;1652347;85;21251;-53
2021/04/15 00:49:33;;;;;;;5.62;4.97;;;;;;;3.82;64.53;96478.82;1649325;85;21280;-53
2021/04/15 00:52:11;;;;;;;5.95;4.97;;;;;;;3.85;64.41;96476.12;1725231;81;21184;-52
2021/04/15 00:54:52;;;;;;;5.35;4.80;;;;;;;3.85;64.35;96471.81;1688220;82;21208;-53
2021/04/15 00:57:30;;;;;;;7.92;5.22;;;;;;;3.90;64.43;96477.17;1628248;86;21589;-54
2021/04/15 00:59:58;;;;;;;7.23;5.63;;;;;;;3.90;64.41;96472.89;1644304;85;21607;-52
2021/04/15 01:02:30;;;;;;;5.70;4.72;;;;;;;3.90;64.55;96477.17;1649229;85;21106;-52
2021/04/15 01:05:00;;;;;;;;;;;;;;;3.90;64.52;96469.47;1650727;85;21571;-52
2021/04/15 01:07:29;;;;;;;4.80;4.15;;;;;;;3.91;64.36;96473.25;1651526;85;20425;-52
2021/04/15 01:09:58;;;;;;;5.62;4.78;;;;;;;3.91;64.27;96471.97;1657601;85;21191;-52
2021/04/15 01:13:23;;;;;;;5.15;4.33;;;;;;;3.82;64.25;96468.09;1657406;84;21183;-52
2021/04/15 01:16:38;;;;;;;6.05;5.10;;;;;;;3.79;64.59;96474.65;1644597;85;22608;-54
2021/04/15 01:19:18;;;;;;;5.83;4.95;;;;;;;3.79;64.66;96470.80;1647940;85;21139;-52
2021/04/15 01:22:31;;;;;;;5.60;5.05;;;;;;;3.79;64.55;96475.93;1657654;85;21473;-53
2021/04/15 01:25:46;;;;;;;5.60;5.00;;;;;;;3.77;64.64;96470.05;1656351;85;21297;-53
2021/04/15 01:28:27;;;;;;;5.97;4.75;;;;;;;3.74;64.72;96469.35;1693516;81;21158;-51
2021/04/15 01:31:04;;;;;;;6.15;4.42;;;;;;;3.75;64.58;96469.28;1705815;82;21137;-52
2021/04/15 01:33:50;;;;;;;5.45;4.60;;;;;;;3.76;64.78;96464.52;1680348;82;21640;-52
2021/04/15 01:36:23;;;;;;;5.00;4.50;;;;;;;3.80;64.71;96467.77;1709704;82;21381;-53
2021/04/15 01:38:56;;;;;;;5.00;4.45;;;;;;;3.80;64.63;96467.77;1705946;82;21609;-53
2021/04/15 01:41:31;;;;;;;5.15;4.42;;;;;;;3.80;64.45;96466.48;1683490;82;21212;-53
2021/04/15 01:44:12;;;;;;;4.87;4.42;;;;;;;3.80;64.49;96467.34;1724235;81;21170;-53
2021/04/15 01:46:40;;;;;;;4.87;4.40;;;;;;;3.80;64.33;96462.20;1720978;81;21185;-53
2021/04/15 01:49:10;;;;;;;5.30;4.80;;;;;;;3.81;64.17;96465.59;1728801;81;21371;-53
2021/04/15 01:51:43;;;;;;;;;;;;;;;3.82;64.11;96462.14;1729293;81;21152;-53
2021/04/15 01:54:34;;;;;;;5.05;4.55;;;;;;;3.83;64.01;96466.35;1708425;82;20220;-53
2021/04/15 01:57:38;;;;;;;5.47;4.85;;;;;;;3.77;64.04;96462.34;1717941;82;21081;-53
2021/04/15 02:00:22;;;;;;;4.35;3.95;;;;;;;3.76;64.12;96461.95;1712929;82;21209;-53
2021/04/15 02:02:57;;;;;;;4.80;4.40;;;;;;;3.71;64.26;96456.66;1726148;81;22129;-53
2021/04/15 02:05:30;;;;;;;4.62;4.22;;;;;;;3.69;64.27;96456.27;1711514;82;21194;-54
2021/04/15 02:08:21;;;;;;;5.03;4.62;;;;;;;3.69;64.33;96454.16;1745204;81;21220;-53
2021/04/15 02:11:25;;;;;;;4.70;4.30;;;;;;;3.67;64.27;96453.41;1721888;81;21153;-52
2021/04/15 02:13:53;;;;;;;5.10;4.60;;;;;;;3.66;64.33;96449.98;1720264;81;21075;-52
2021/04/15 02:16:26;;;;;;;4.78;4.37;;;;;;;3.65;64.44;96457.32;1706274;81;21129;-54
2021/04/15 02:19:08;;;;;;;4.60;4.20;;;;;;;3.67;64.36;96460.64;1731491;81;21229;-55
2021/04/15 02:22:11;;;;;;;4.53;4.12;;;;;;;3.67;64.36;96460.64;1728755;81;21120;-53
2021/04/15 02:25:15;;;;;;;4.28;3.87;;;;;;;3.67;64.62;96463.20;1702430;82;21090;-54
2021/04/15 02:27:47;;;;;;;4.58;4.17;;;;;;;3.69;64.62;96457.55;1724958;81;22383;-56
2021/04/15 02:30:26;;;;;;;4.60;4.20;;;;;;;3.73;64.55;96456.95;1708212;81;21380;-55
2021/04/15 02:33:03;;;;;;;4.47;4.08;;;;;;;3.77;64.52;96464.91;1719251;82;21156;-53
2021/04/15 02:35:41;;;;;;;4.72;4.33;;;;;;;3.81;64.22;96460.47;1708614;82;21061;-55
2021/04/15 02:38:10;;;;;;;5.03;4.55;;;;;;;3.79;64.20;96457.97;1728533;81;21078;-53
2021/04/15 02:40:56;;;;;;;4.90;4.50;;;;;;;3.75;64.22;96453.03;1714113;82;21187;-53
2021/04/15 02:43:34;;;;;;;4.53;4.12;;;;;;;3.75;64.22;96453.03;1734161;81;21522;-53
2021/04/15 02:46:09;;;;;;;4.45;4.05;;;;;;;3.67;64.19;96452.94;1721796;81;21078;-53
2021/04/15 02:48:40;;;;;;;4.53;4.05;;;;;;;3.64;64.25;96449.69;1736623;81;21144;-52
2021/04/15 02:51:28;;;;;;;5.03;4.53;;;;;;;3.62;64.25;96456.63;1724344;81;21169;-53
2021/04/15 02:54:10;;;;;;;5.15;4.42;;;;;;;3.59;64.35;96456.77;1724450;81;21152;-55
2021/04/15 02:56:52;;;;;;;5.78;4.08;;;;;;;3.59;64.52;96456.30;1708522;81;22371;-53
2021/04/15 02:59:26;;;;;;;4.50;4.12;;;;;;;3.63;64.49;96459.56;1710412;81;21513;-53
2021/04/15 03:01:59;;;;;;;4.47;4.08;;;;;;;3.60;64.54;96454.13;1708925;81;21098;-52
2021/04/15 03:04:26;;;;;;;5.20;4.70;;;;;;;3.62;64.51;96456.63;1734965;81;21130;-53
2021/04/15 03:06:57;;;;;;;4.72;4.33;;;;;;;3.61;64.47;96457.52;1726220;81;21474;-53
2021/04/15 03:09:25;;;;;;;;;;;;;;;3.58;64.53;96452.52;1728601;81;21431;-54
2021/04/15 03:12:07;;;;;;;4.42;4.03;;;;;;;3.58;64.46;96455.09;1692557;83;20233;-54
2021/04/15 03:14:49;;;;;;;5.05;4.53;;;;;;;3.55;64.33;96456.05;1691522;84;21156;-53
2021/04/15 03:17:17;;;;;;;10.30;6.17;;;;;;;3.47;64.41;96459.40;1689460;83;21149;-53
2021/04/15 03:19:49;;;;;;;5.33;4.67;;;;;;;3.38;64.59;96453.41;1703054;83;21204;-54
2021/04/15 03:22:23;;;;;;;4.97;4.35;;;;;;;3.33;64.75;96461.77;1700003;83;21369;-53
2021/04/15 03:24:55;;;;;;;6.22;5.42;;;;;;;3.31;65.05;96460.55;1672966;84;21092;-53
2021/04/15 03:27:52;;;;;;;188.25;103.10;;;;;;;3.34;65.05;96460.84;1728403;81;21519;-57
2021/04/15 03:30:49;;;;;;;34.48;23.02;;;;;;;3.53;64.97;96450.62;1698949;83;21751;-53
2021/04/15 03:33:49;;;;;;;29.63;13.65;;;;;;;3.53;64.97;96450.62;1726889;81;21571;-52
2021/04/15 03:36:27;;;;;;;7.62;5.62;;;;;;;3.52;64.50;96456.64;1722203;81;23551;-54
2021/04/15 03:39:13;;;;;;;5.08;4.20;;;;;;;3.52;64.50;96456.64;1689587;84;21151;-54
2021/04/15 03:41:49;;;;;;;6.03;4.65;;;;;;;3.48;64.40;96455.95;1677613;83;21188;-55
2021/04/15 03:44:28;;;;;;;7.55;4.80;;;;;;;3.39;64.57;96466.17;1740877;81;21148;-55
2021/04/15 03:46:59;;;;;;;4.90;4.33;;;;;;;3.31;64.78;96460.55;1709066;82;21174;-56
2021/04/15 03:49:36;;;;;;;4.58;4.17;;;;;;;3.31;64.78;96460.55;1722209;82;21211;-54
2021/04/15 03:52:22;;;;;;;115.25;71.57;;;;;;;3.30;64.96;96466.56;1718004;81;21172;-54
2021/04/15 03:55:14;;;;;;;183.05;112.42;;;;;;;3.34;65.20;96473.23;1735309;81;21523;-56
2021/04/15 03:57:42;;;;;;;30.30;15.60;;;;;;;3.34;65.20;96473.23;1740722;81;21170;-53
2021/04/15 04:00:17;;;;;;;11.55;6.83;;;;;;;3.38;65.07;96477.32;1697304;82;21524;-52
2021/04/15 04:02:49;;;;;;;10.32;5.42;;;;;;;3.46;64.81;96473.97;1744333;81;21216;-54
2021/04/15 04:05:31;;;;;;;4.85;4.35;;;;;;;3.47;64.47;96476.08;1706337;82;21197;-52
2021/04/15 04:08:03;;;;;;;5.53;4.75;;;;;;;3.43;64.49;96479.69;1721493;82;21147;-53
2021/04/15 04:10:43;;;;;;;4.55;4.12;;;;;;;3.41;64.52;96481.04;1715983;82;21192;-54
2021/04/15 04:13:36;;;;;;;4.60;4.20;;;;;;;3.44;64.45;96478.34;1724471;82;21236;-57
2021/04/15 04:16:13;;;;;;;4.47;4.08;;;;;;;3.55;64.28;96486.83;1741042;81;21213;-54
2021/04/15 04:19:07;;;;;;;4.45;4.05;;;;;;;3.55;64.28;96486.83;1741129;81;21560;-53
2021/04/15 04:21:46;;;;;;;4.03;3.62;;;;;;;3.63;63.98;96489.06;1718384;81;21180;-53
2021/04/15 04:24:29;;;;;;;32.63;22.13;;;;;;;3.70;63.59;96487.91;1713573;82;21137;-54
2021/04/15 04:27:04;;;;;;;16.23;11.15;;;;;;;3.78;63.58;96487.55;1714582;82;21138;-54
2021/04/15 04:29:43;;;;;;;67.72;22.93;;;;;;;3.91;63.25;96489.94;1723299;82;21780;-54
2021/04/15 04:32:15;;;;;;;17.05;7.60;;;;;;;4.02;62.81;96487.72;1744297;81;21109;-54
2021/04/15 04:34:48;;;;;;;103.25;64.62;;;;;;;4.10;62.42;96487.37;1743549;81;21164;-51
2021/04/15 04:37:18;;;;;;;78.75;40.50;;;;;;;4.11;62.34;96494.18;1717725;81;21144;-54
2021/04/15 04:39:48;;;;;;;14.13;8.88;;;;;;;4.13;62.30;96492.80;1749537;80;21108;-55
2021/04/15 04:42:26;;;;;;;13.18;7.08;;;;;;;4.13;61.96;96491.08;1711566;82;21396;-53
2021/04/15 04:44:58;;;;;;;6.03;4.53;;;;;;;4.15;61.85;96487.98;1692803;83;21140;-54
2021/04/15 04:47:54;;;;;;;8.00;4.67;;;;;;;4.24;61.84;96499.55;1708909;83;21596;-53
2021/04/15 04:50:51;;;;;;;5.47;4.10;;;;;;;4.33;61.65;96495.28;1696566;83;21160;-51
2021/04/15 04:53:30;;;;;;;4.00;3.42;;;;;;;4.43;61.25;96493.94;1701423;83;21593;-52
2021/04/15 04:56:21;;;;;;;4.92;3.50;;;;;;;4.49;60.95;96491.97;1700734;83;22240;-56
2021/04/15 04:59:06;;;;;;;4.58;4.05;;;;;;;4.53;60.73;96489.19;1701288;83;21177;-54
2021/04/15 05:01:33;;;;;;;4.12;3.77;;;;;;;4.57;60.66;96490.72;1667902;84;21529;-53
2021/04/15 05:04:04;;;;;;;3.52;3.22;;;;;;;4.61;60.29;96489.66;1622608;84;21104;-54
2021/04/15 05:06:38;;;;;;;3.40;3.10;;;;;;;4.59;60.37;96489.37;1707210;82;21109;-51
2021/04/15 05:09:28;;;;;;;4.12;3.50;;;;;;;4.64;60.29;96488.69;1728166;81;21211;-54
2021/04/15 05:11:57;;;;;;;4.08;3.67;;;;;;;4.68;59.99;96491.47;1725955;81;21113;-51
2021/04/15 05:14:27;;;;;;;3.55;3.25;;;;;;;4.71;59.86;96488.75;1706021;82;21613;-52
2021/04/15 05:17:24;;;;;;;3.90;3.60;;;;;;;4.71;59.90;96490.04;1738673;81;21207;-53
2021/04/15 05:19:56;;;;;;;3.92;3.55;;;;;;;4.71;59.61;96490.04;1708229;81;21237;-54
2021/04/15 05:22:36;;;;;;;3.55;3.25;;;;;;;4.74;59.68;96495.50;1726947;81;21614;-54
2021/04/15 05:25:10;;;;;;;3.50;3.10;;;;;;;4.79;59.45;96487.92;1724857;82;21130;-53
2021/04/15 05:27:39;;;;;;;3.87;3.45;;;;;;;4.83;59.09;96490.35;1726248;81;21193;-53
2021/04/15 05:30:47;;;;;;;3.55;3.25;;;;;;;4.87;59.05;96492.70;1705333;82;21589;-54
2021/04/15 05:33:22;;;;;;;4.75;3.35;;;;;;;4.95;58.91;96500.02;1725348;81;21221;-53
2021/04/15 05:36:11;;;;;;;3.47;3.17;;;;;;;5.00;58.88;96498.08;1723208;82;21210;-53
2021/04/15 05:38:49;;;;;;;3.50;3.20;;;;;;;5.06;58.72;96500.78;1732177;82;21641;-54
2021/04/15 05:41:40;;;;;;;3.00;2.70;;;;;;;5.12;58.52;96496.63;1727943;81;21122;-53
2021/04/15 05:44:12;;;;;;;4.58;3.20;;;;;;;5.15;58.10;96502.44;1724779;81;21159;-54
2021/04/15 05:46:44;;;;;;;3.45;3.15;;;;;;;5.15;57.99;96501.16;1715471;82;21528;-52
2021/04/15 05:49:26;;;;;;;4.20;3.72;;;;;;;5.17;57.82;96497.22;1746688;81;22126;-54
2021/04/15 05:52:24;;;;;;;3.40;3.10;;;;;;;5.15;57.61;96502.91;1732417;81;21194;-55
2021/04/15 05:55:07;;;;;;;3.30;3.00;;;;;;;5.17;57.63;96492.08;1702368;81;21064;-53
2021/04/15 05:57:39;;;;;;;3.12;2.90;;;;;;;5.26;57.62;96502.34;1745417;81;21214;-53
2021/04/15 06:00:31;;;;;;;3.15;2.87;;;;;;;5.31;57.31;96499.08;1742079;81;21143;-54
2021/04/15 06:03:42;;;;;;;3.27;2.90;;;;;;;5.35;57.16;96494.99;1732944;81;21236;-53
2021/04/15 06:06:18;;;;;;;3.35;3.05;;;;;;;5.42;57.15;96492.94;1746124;81;21532;-52
2021/04/15 06:08:48;;;;;;;5.58;3.77;;;;;;;5.46;56.97;96494.89;1715172;82;21216;-52
2021/04/15 06:11:29;;;;;;;3.30;3.00;;;;;;;5.51;56.89;96498.91;1735820;81;21139;-54
2021/04/15 06:14:12;;;;;;;3.35;3.05;;;;;;;5.49;56.58;96496.88;1687277;84;21493;-52
2021/04/15 06:16:59;;;;;;;3.50;3.30;;;;;;;5.62;57.23;96500.91;1854558;76;27517;-52
2021/04/15 06:19:33;;;;;;;3.50;3.15;;;;;;;5.70;56.63;96499.23;1759120;80;21187;-54
2021/04/15 06:22:15;;;;;;;5.05;3.35;;;;;;;5.79;56.35;96501.33;1775582;79;21109;-53
2021/04/15 06:24:46;;;;;;;3.72;3.20;;;;;;;5.91;56.20;96501.13;1801374;78;21160;-54
2021/04/15 06:27:15;;;;;;;3.25;2.92;;;;;;;6.00;55.89;96496.81;1775156;79;21094;-53
2021/04/15 06:30:04;;;;;;;3.22;2.92;;;;;;;6.17;55.74;96492.03;1782718;79;21204;-56
2021/04/15 06:32:51;;;;;;;4.85;3.77;;;;;;;6.39;55.17;96496.83;1798031;79;20990;-54
2021/04/15 06:35:29;;;;;;;4.75;3.65;;;;;;;6.66;54.67;96500.09;1794903;79;21369;-53
2021/04/15 06:38:32;;;;;;;4.78;4.28;;;;;;;6.92;54.28;96502.92;1793272;79;21501;-54
2021/04/15 06:41:40;;;;;;;4.97;3.80;;;;;;;7.17;53.57;96498.02;1796634;78;21593;-52
2021/04/15 06:44:48;;;;;;;3.98;3.58;;;;;;;7.51;52.96;96499.06;1793106;79;21121;-52
2021/04/15 06:47:50;;;;;;;4.30;3.90;;;;;;;7.85;52.17;96498.33;1789557;79;21191;-52
2021/04/15 06:50:50;;;;;;;3.58;3.17;;;;;;;8.13;51.00;96497.45;1794330;78;22298;-53
2021/04/15 06:53:39;;;;;;;3.67;3.37;;;;;;;8.17;50.89;96501.48;1742640;80;21201;-53
2021/04/15 06:56:22;;;;;;;3.65;3.30;;;;;;;8.35;50.61;96494.33;1800036;79;21485;-54
2021/04/15 06:59:32;;;;;;;2.87;2.67;;;;;;;8.48;50.07;96491.84;1805365;78;21188;-55
2021/04/15 07:02:39;;;;;;;3.20;2.90;;;;;;;8.54;49.76;96493.22;1800303;79;21096;-54
2021/04/15 07:05:24;;;;;;;4.55;2.90;;;;;;;8.52;49.33;96493.77;1794883;79;21212;-54
2021/04/15 07:08:07;;;;;;;3.50;3.20;;;;;;;8.62;49.67;96490.50;1789017;79;21563;-53
2021/04/15 07:11:00;;;;;;;3.67;3.37;;;;;;;8.76;49.20;96491.36;1801353;79;21053;-53
2021/04/15 07:14:05;;;;;;;3.83;3.47;;;;;;;8.91;48.90;96487.77;1771186;78;21171;-53
2021/04/15 07:17:00;;;;;;;3.20;2.92;;;;;;;9.17;48.51;96483.94;1786518;78;21117;-53
2021/04/15 07:19:46;;;;;;;3.85;2.75;;;;;;;9.59;47.88;96484.58;1744870;80;21398;-54
2021/04/15 07:22:45;;;;;;;9.13;3.55;;;;;;;10.24;46.91;96491.75;1708131;81;21136;-54
2021/04/15 07:25:20;;;;;;;3.77;3.00;;;;;;;10.95;45.53;96490.58;1728784;81;21162;-52
2021/04/15 07:28:04;;;;;;;6.25;4.92;;;;;;;11.63;43.75;96486.36;1714944;81;21160;-52
2021/04/15 07:30:58;;;;;;;3.45;3.25;;;;;;;12.20;42.42;96493.67;1728807;81;21113;-52
2021/04/15 07:34:17;;;;;;;2.90;2.70;;;;;;;12.78;41.01;96487.37;1682232;83;21382;-54
2021/04/15 07:37:15;;;;;;;2.70;2.50;;;;;;;13.43;40.30;96492.86;1691323;83;21226;-59
2021/04/15 07:40:11;;;;;;;2.65;2.45;;;;;;;14.28;38.54;96496.59;1690600;83;21403;-53
2021/04/15 07:43:19;;;;;;;2.62;2.42;;;;;;;14.76;37.81;96501.09;1678992;83;21854;-55
2021/04/15 07:46:27;;;;;;;3.27;3.00;;;;;;;15.07;37.11;96494.44;1693835;83;21115;-54
2021/04/15 07:49:29;;;;;;;2.27;2.17;;;;;;;15.12;36.30;96494.03;1676870;83;22060;-54
2021/04/15 07:52:24;;;;;;;2.67;2.47;;;;;;;15.16;34.65;96487.05;1674398;83;21160;-53
2021/04/15 07:55:06;;;;;;;3.80;3.50;;;;;;;14.89;35.19;96493.00;1680177;83;21151;-53
2021/04/15 07:58:22;;;;;;;3.40;3.00;;;;;;;15.05;35.67;96492.45;1696258;83;21148;-53
2021/04/15 08:00:59;;;;;;;3.98;3.67;;;;;;;15.41;34.83;96485.66;1690196;83;21080;-53
2021/04/15 08:04:08;;;;;;;3.05;2.85;;;;;;;15.68;34.40;96477.53;1684782;83;21528;-53
2021/04/15 08:06:47;;;;;;;2.75;2.55;;;;;;;15.88;33.72;96476.19;1682073;83;21113;-54
2021/04/15 08:09:37;;;;;;;3.17;2.87;;;;;;;15.55;33.42;96477.02;1683785;83;21655;-52
2021/04/15 08:12:36;;;;;;;3.02;2.83;;;;;;;15.51;33.99;96480.41;1673101;85;21187;-54
2021/04/15 08:15:39;;;;;;;2.75;2.55;;;;;;;15.71;33.60;96470.70;1651922;85;21618;-53
2021/04/15 08:18:32;;;;;;;2.60;2.40;;;;;;;15.83;33.87;96474.81;1676415;83;21553;-53
2021/04/15 08:21:30;;;;;;;2.87;2.67;;;;;;;15.72;33.65;96471.52;1631375;83;21087;-53
2021/04/15 08:24:23;;;;;;;2.67;2.50;;;;;;;15.49;33.71;96467.94;1673323;85;21080;-55
2021/04/15 08:27:19;;;;;;;2.67;2.47;;;;;;;15.13;33.69;96475.59;1670231;85;21228;-53
2021/04/15 08:30:26;;;;;;;2.72;2.47;;;;;;;14.93;34.29;96473.45;1658486;85;21114;-51
2021/04/15 08:33:07;;;;;;;3.15;2.85;;;;;;;14.99;34.29;96472.09;1649220;84;21400;-52
2021/04/15 08:36:20;;;;;;;2.50;2.30;;;;;;;14.82;34.11;96480.13;1655398;85;21169;-53
2021/04/15 08:39:28;;;;;;;3.55;2.58;;;;;;;14.46;34.02;96478.02;1655855;84;21150;-52
2021/04/15 08:42:26;;;;;;;3.35;3.05;;;;;;;13.92;34.60;96475.34;1619749;85;21137;-53
2021/04/15 08:45:20;;;;;;;2.90;2.58;;;;;;;13.40;35.59;96477.51;1659832;85;21161;-52
2021/04/15 08:48:12;;;;;;;2.85;2.05;;;;;;;13.16;36.22;96478.22;1653137;85;21624;-52
2021/04/15 08:51:14;;;;;;;2.40;2.20;;;;;;;13.24;36.42;96462.29;1643627;84;21219;-52
2021/04/15 08:54:31;;;;;;;2.75;2.33;;;;;;;13.41;36.01;96471.81;1660221;84;21193;-54
2021/04/15 08:57:35;;;;;;;2.40;2.20;;;;;;;13.40;36.10;96476.66;1658880;85;21168;-53
2021/04/15 09:00:36;;;;;;;3.10;2.77;;;;;;;13.23;36.74;96476.75;1725405;80;21116;-52
2021/04/15 09:03:53;;;;;;;4.10;2.55;;;;;;;13.02;36.59;96472.83;1748727;80;21372;-52
2021/04/15 09:06:29;;;;;;;2.62;2.40;;;;;;;12.52;37.61;96477.30;1766033;80;21169;-51
2021/04/15 09:09:27;;;;;;;2.20;2.00;;;;;;;12.19;38.68;96480.78;1726536;81;21168;-53
2021/04/15 09:12:31;;;;;;;1.98;1.87;;;;;;;11.95;38.64;96477.39;1733074;81;21096;-53
2021/04/15 09:15:17;;;;;;;3.22;2.10;;;;;;;11.64;38.92;96478.08;1749241;80;22447;-52
2021/04/15 09:18:28;;;;;;;2.67;1.80;;;;;;;11.40;39.56;96480.31;1755636;80;21199;-53
2021/04/15 09:21:49;;;;;;;3.55;1.98;;;;;;;11.27;40.23;96474.39;1714974;83;21187;-53
2021/04/15 09:24:35;;;;;;;4.50;2.22;;;;;;;11.20;40.34;96472.25;1716982;82;21541;-52
2021/04/15 09:27:32;;;;;;;1.92;1.75;;;;;;;11.10;40.68;96481.68;1871745;75;28516;-56
2021/04/15 09:30:34;;;;;;;;;;;;;;;10.87;40.86;96478.16;1838706;77;21024;-53
2021/04/15 09:33:27;;;;;;;3.35;2.15;;;;;;;10.62;41.53;96476.53;1855447;77;21091;-51
2021/04/15 09:36:20;;;;;;;2.35;2.12;;;;;;;10.42;42.18;96476.68;1847785;77;21144;-54
2021/04/15 09:39:04;;;;;;;2.62;2.42;;;;;;;10.20;42.75;96476.06;1844771;76;21095;-51
2021/04/15 09:41:39;;;;;;;2.20;2.00;;;;;;;10.05;43.12;96479.24;1843283;77;21139;-53
2021/04/15 09:44:38;;;;;;;2.20;2.10;;;;;;;9.89;43.95;96479.50;1854238;77;21104;-53
2021/04/15 09:47:41;;;;;;;2.40;2.20;;;;;;;9.83;44.00;96480.74;1848678;77;21348;-53
2021/04/15 09:50:32;;;;;;;2.42;2.22;;;;;;;9.82;43.76;96480.84;1837335;77;21230;-54
2021/04/15 09:53:07;;;;;;;2.33;2.12;;;;;;;9.80;43.93;96480.13;1837600;77;21124;-51
2021/04/15 09:56:12;;;;;;;2.50;2.30;;;;;;;9.81;44.72;96483.91;1846966;77;21109;-53
2021/04/15 09:59:23;;;;;;;2.30;2.10;;;;;;;9.85;44.42;96476.75;1848874;77;21085;-52
2021/04/15 10:02:00;;;;;;;2.12;2.02;;;;;;;9.81;44.52;96476.14;1809336;77;21374;-51
2021/04/15 10:04:37;;;;;;;;;;;;;;;9.82;44.00;96477.81;1819421;78;21144;-52
2021/04/15 10:07:19;;;;;;;3.17;2.87;;;;;;;9.82;44.20;96472.63;1799960;79;20213;-52
2021/04/15 10:09:57;;;;;;;3.95;2.17;;;;;;;9.79;44.56;96475.42;1789998;79;21223;-52
2021/04/15 10:12:44;;;;;;;3.27;2.33;;;;;;;9.88;44.62;96482.55;1797274;79;21560;-53
2021/04/15 10:15:33;;;;;;;4.25;2.92;;;;;;;9.91;44.35;96477.16;1793214;79;21378;-52
2021/04/15 10:18:19;;;;;;;3.67;3.05;;;;;;;9.93;44.56;96471.86;1794106;79;24129;-55
2021/04/15 10:21:20;;;;;;;2.85;2.55;;;;;;;9.93;44.99;96474.01;1794336;79;21061;-52
2021/04/15 10:24:12;;;;;;;3.30;2.70;;;;;;;9.94;45.15;96469.16;1795809;79;21612;-53
2021/04/15 10:27:19;;;;;;;2.62;2.42;;;;;;;9.94;45.39;96470.94;1779336;79;21500;-53
2021/04/15 10:29:56;;;;;;;2.08;1.95;;;;;;;9.92;45.31;96471.05;1774983;79;22061;-53
2021/04/15 10:32:29;;;;;;;2.60;2.40;;;;;;;9.91;45.24;96471.97;1768599;80;21156;-53
2021/04/15 10:38:25;;;;;;;2.20;1.90;;;;;;;9.86;45.42;96470.17;1677850;82;21237;-53
2021/04/15 10:41:18;;;;;;;1.77;1.67;;;;;;;9.81;45.49;96476.62;1682578;84;21124;-53
2021/04/15 10:44:12;;;;;;;2.05;1.67;;;;;;;9.75;46.15;96478.70;1683431;84;21221;-53
2021/04/15 10:47:01;;;;;;;2.05;1.85;;;;;;;9.83;45.80;96470.38;1682204;83;21104;-55
2021/04/15 10:49:56;;;;;;;2.87;1.62;;;;;;;9.86;45.42;96477.13;1683735;83;21533;-52
2021/04/15 10:52:48;;;;;;;2.40;2.20;;;;;;;9.75;45.72;96476.11;1685750;83;21184;-53
2021/04/15 10:55:37;;;;;;;2.22;2.05;;;;;;;9.69;46.06;96473.12;1683163;83;21148;-53
2021/04/15 10:58:35;;;;;;;2.30;2.02;;;;;;;9.64;46.51;96471.28;1677342;83;22077;-54
2021/04/15 11:01:29;;;;;;;2.10;2.00;;;;;;;9.61;46.63;96475.41;1680193;83;21152;-53
2021/04/15 11:04:00;;;;;;;2.17;1.98;;;;;;;9.57;46.79;96480.80;1668704;83;21180;-52
2021/04/15 11:06:56;;;;;;;2.08;1.98;;;;;;;9.53;46.98;96479.80;1677620;83;21160;-53
2021/04/15 11:09:37;;;;;;;2.58;2.35;;;;;;;9.51;47.17;96480.38;1686218;83;21144;-55
2021/04/15 11:12:30;;;;;;;2.30;2.10;;;;;;;9.48;47.33;96480.11;1683172;83;21151;-54
2021/04/15 11:15:12;;;;;;;2.87;2.60;;;;;;;9.39;47.65;96476.84;1683154;83;21211;-54
2021/04/15 11:17:46;;;;;;;2.83;2.62;;;;;;;9.31;48.17;96478.67;1683450;83;21085;-53
2021/04/15 11:20:30;;;;;;;3.05;2.75;;;;;;;9.29;48.73;96483.12;1679552;83;21140;-53
2021/04/15 11:23:05;;;;;;;3.60;3.30;;;;;;;9.26;48.94;96480.74;1679945;83;21101;-53
2021/04/15 11:25:48;;;;;;;7.92;5.53;;;;;;;9.24;49.19;96480.47;1678109;83;21143;-53
2021/04/15 11:28:31;;;;;;;6.95;5.28;;;;;;;9.24;49.72;96475.30;1674668;83;21218;-53
2021/04/15 11:31:12;;;;;;;5.75;4.15;;;;;;;9.32;49.67;96475.61;1678585;83;21144;-52
2021/04/15 11:33:52;;;;;;;8.98;5.33;;;;;;;9.42;49.44;96482.29;1680565;83;21144;-53
2021/04/15 11:36:32;;;;;;;12.13;6.72;;;;;;;9.49;49.42;96475.75;1680954;84;21255;-52
2021/04/15 11:39:16;;;;;;;5.35;3.70;;;;;;;9.54;48.91;96478.88;1703372;82;21216;-52
2021/04/15 11:42:07;;;;;;;3.72;2.87;;;;;;;9.50;48.37;96471.77;1707925;82;21168;-52
2021/04/15 11:44:55;;;;;;;3.22;2.47;;;;;;;9.44;48.33;96473.94;1689682;83;21173;-52
2021/04/15 11:47:29;;;;;;;3.20;2.55;;;;;;;9.27;48.86;96470.73;1702356;82;21143;-53
2021/04/15 11:50:14;;;;;;;7.08;5.12;;;;;;;9.24;49.22;96469.64;1709149;82;21072;-52
2021/04/15 11:52:46;;;;;;;3.30;3.00;;;;;;;9.27;49.35;96471.20;1698591;82;21407;-52
2021/04/15 11:55:27;;;;;;;2.30;2.10;;;;;;;9.24;48.97;96469.64;1704079;82;21255;-52
2021/04/15 11:58:01;;;;;;;5.22;3.47;;;;;;;9.09;49.13;96468.08;1693009;82;21107;-53
2021/04/15 12:00:38;;;;;;;4.78;4.15;;;;;;;8.91;50.03;96475.30;1701610;82;21191;-52
2021/04/15 12:03:14;;;;;;;4.15;3.30;;;;;;;8.83;50.30;96472.77;1695373;82;21140;-52
2021/04/15 12:05:45;;;;;;;2.85;2.62;;;;;;;8.81;50.81;96475.08;1698018;83;21356;-52
2021/04/15 12:08:26;;;;;;;2.80;2.47;;;;;;;8.78;51.13;96478.70;1710364;82;21157;-52
2021/04/15 12:11:16;;;;;;;2.75;2.33;;;;;;;8.78;51.47;96478.70;1696532;82;21132;-52
2021/04/15 12:14:00;;;;;;;2.35;2.12;;;;;;;8.85;51.40;96475.25;1703733;82;21214;-53
2021/04/15 12:17:02;;;;;;;3.12;2.55;;;;;;;8.98;51.48;96475.25;1709303;83;21088;-52
2021/04/15 12:19:52;;;;;;;3.90;2.62;;;;;;;9.06;51.63;96472.17;1702299;82;21517;-51
2021/04/15 12:22:45;;;;;;;5.08;3.20;;;;;;;9.13;51.66;96475.55;1706541;82;21144;-51
2021/04/15 12:25:34;;;;;;;4.67;2.87;;;;;;;9.21;51.43;96469.39;1703576;82;21572;-53
2021/04/15 12:28:43;;;;;;;3.95;2.33;;;;;;;9.18;50.99;96472.19;1697385;83;21604;-54
2021/04/15 12:31:36;;;;;;;3.00;2.80;;;;;;;9.18;51.23;96470.07;1706930;83;21545;-52
2021/04/15 12:34:34;;;;;;;3.10;2.80;;;;;;;9.20;51.56;96466.91;1886158;74;28196;-53
2021/04/15 12:37:13;;;;;;;3.05;2.75;;;;;;;9.12;51.92;96475.17;1802793;75;21161;-52
2021/04/15 12:39:50;;;;;;;3.98;3.37;;;;;;;9.07;52.74;96481.60;1835699;75;21363;-52
2021/04/15 12:42:26;;;;;;;4.67;3.60;;;;;;;9.00;52.89;96476.82;1852044;75;20910;-52
2021/04/15 12:44:58;;;;;;;4.17;3.40;;;;;;;8.96;53.17;96471.50;1832493;75;21070;-52
2021/04/15 12:47:33;;;;;;;3.52;3.22;;;;;;;8.89;53.94;96479.76;1798058;78;21620;-51
2021/04/15 12:50:00;;;;;;;3.52;3.22;;;;;;;8.69;54.49;96479.30;1803566;78;21041;-52
2021/04/15 12:52:31;;;;;;;3.40;3.10;;;;;;;8.52;54.70;96480.39;1791641;78;21136;-51
2021/04/15 12:55:01;;;;;;;2.77;2.58;;;;;;;8.41;54.96;96481.50;1770173;78;20983;-51
2021/04/15 12:57:30;;;;;;;4.28;2.90;;;;;;;8.35;55.01;96489.16;1806640;77;20987;-52
2021/04/15 13:00:00;;;;;;;3.60;3.10;;;;;;;8.36;55.69;96486.95;1787197;78;21109;-53
2021/04/15 13:02:32;;;;;;;2.95;2.60;;;;;;;8.43;56.13;96481.78;1770217;78;21072;-52
2021/04/15 13:05:11;;;;;;;2.75;2.55;;;;;;;8.54;55.93;96477.23;1742377;80;22227;-52